sensor_id;sensor_type;location;lat;lon;timestamp;P1;durP1;ratioP1;P2;durP2;ratioP2
10497;SDS011;5296;51.060;13.750;2022-10-16T00:04:51;14.65;;;13.25;;
10497;SDS011;5296;51.060;13.750;2022-10-16T00:09:53;13.02;;;11.73;;
10497;SDS011;5296;51.060;13.750;2022-10-16T00:14:54;13.80;;;11.98;;
10497;SDS011;5296;51.060;13.750;2022-10-16T00:19:56;12.65;;;11.35;;
10497;SDS011;5296;51.060;13.750;2022-10-16T00:24:57;12.80;;;11.60;;
10497;SDS011;5296;51.060;13.750;2022-10-16T00:29:59;12.13;;;10.93;;
10497;SDS011;5296;51.060;13.750;2022-10-16T00:35:00;12.45;;;11.13;;
10497;SDS011;5296;51.060;13.750;2022-10-16T00:40:02;12.13;;;11.13;;
10497;SDS011;5296;51.060;13.750;2022-10-16T00:45:04;11.85;;;10.65;;
10497;SDS011;5296;51.060;13.750;2022-10-16T00:50:11;11.70;;;10.60;;
10497;SDS011;5296;51.060;13.750;2022-10-16T00:55:15;11.68;;;10.63;;
10497;SDS011;5296;51.060;13.750;2022-10-16T01:00:19;11.75;;;10.65;;
10497;SDS011;5296;51.060;13.750;2022-10-16T01:05:23;11.82;;;10.68;;
10497;SDS011;5296;51.060;13.750;2022-10-16T01:10:40;11.38;;;10.38;;
10497;SDS011;5296;51.060;13.750;2022-10-16T01:15:53;12.60;;;11.27;;
10497;SDS011;5296;51.060;13.750;2022-10-16T01:21:02;11.70;;;10.60;;
10497;SDS011;5296;51.060;13.750;2022-10-16T01:26:28;11.48;;;10.48;;
10497;SDS011;5296;51.060;13.750;2022-10-16T01:31:38;11.77;;;10.68;;
10497;SDS011;5296;51.060;13.750;2022-10-16T01:36:42;11.43;;;10.32;;
10497;SDS011;5296;51.060;13.750;2022-10-16T01:41:53;11.57;;;10.57;;
10497;SDS011;5296;51.060;13.750;2022-10-16T01:46:57;10.98;;;10.05;;
10497;SDS011;5296;51.060;13.750;2022-10-16T01:51:59;11.35;;;10.35;;
10497;SDS011;5296;51.060;13.750;2022-10-16T01:57:04;12.00;;;10.95;;
10497;SDS011;5296;51.060;13.750;2022-10-16T02:02:10;11.57;;;10.57;;
10497;SDS011;5296;51.060;13.750;2022-10-16T02:07:12;12.05;;;10.88;;
10497;SDS011;5296;51.060;13.750;2022-10-16T02:12:19;11.57;;;10.55;;
10497;SDS011;5296;51.060;13.750;2022-10-16T02:17:26;11.90;;;10.80;;
10497;SDS011;5296;51.060;13.750;2022-10-16T02:22:29;12.80;;;11.35;;
10497;SDS011;5296;51.060;13.750;2022-10-16T02:32:47;12.80;;;11.70;;
10497;SDS011;5296;51.060;13.750;2022-10-16T02:37:50;12.85;;;11.60;;
10497;SDS011;5296;51.060;13.750;2022-10-16T02:42:52;12.30;;;11.30;;
10497;SDS011;5296;51.060;13.750;2022-10-16T02:47:54;12.90;;;11.80;;
10497;SDS011;5296;51.060;13.750;2022-10-16T02:52:56;12.07;;;11.07;;
10497;SDS011;5296;51.060;13.750;2022-10-16T02:57:57;13.30;;;12.10;;
10497;SDS011;5296;51.060;13.750;2022-10-16T03:02:59;12.85;;;11.65;;
10497;SDS011;5296;51.060;13.750;2022-10-16T03:08:00;12.57;;;11.27;;
10497;SDS011;5296;51.060;13.750;2022-10-16T03:13:02;12.25;;;11.15;;
10497;SDS011;5296;51.060;13.750;2022-10-16T03:18:04;12.32;;;11.13;;
10497;SDS011;5296;51.060;13.750;2022-10-16T03:23:05;11.93;;;10.77;;
10497;SDS011;5296;51.060;13.750;2022-10-16T03:28:09;11.35;;;10.45;;
10497;SDS011;5296;51.060;13.750;2022-10-16T03:33:11;11.63;;;10.63;;
10497;SDS011;5296;51.060;13.750;2022-10-16T03:38:12;12.60;;;11.40;;
10497;SDS011;5296;51.060;13.750;2022-10-16T03:43:14;11.80;;;10.80;;
10497;SDS011;5296;51.060;13.750;2022-10-16T03:48:20;11.70;;;10.70;;
10497;SDS011;5296;51.060;13.750;2022-10-16T03:53:22;11.63;;;10.63;;
10497;SDS011;5296;51.060;13.750;2022-10-16T03:58:23;11.38;;;10.38;;
10497;SDS011;5296;51.060;13.750;2022-10-16T04:03:25;11.60;;;10.50;;
10497;SDS011;5296;51.060;13.750;2022-10-16T04:08:27;12.85;;;11.55;;
10497;SDS011;5296;51.060;13.750;2022-10-16T04:13:28;17.45;;;13.25;;
10497;SDS011;5296;51.060;13.750;2022-10-16T04:18:30;12.68;;;11.57;;
10497;SDS011;5296;51.060;13.750;2022-10-16T04:23:32;12.38;;;11.38;;
10497;SDS011;5296;51.060;13.750;2022-10-16T04:28:33;12.65;;;11.55;;
10497;SDS011;5296;51.060;13.750;2022-10-16T04:33:35;12.05;;;11.05;;
10497;SDS011;5296;51.060;13.750;2022-10-16T04:38:36;12.23;;;11.13;;
10497;SDS011;5296;51.060;13.750;2022-10-16T04:43:38;12.85;;;11.70;;
10497;SDS011;5296;51.060;13.750;2022-10-16T04:48:40;12.13;;;10.93;;
10497;SDS011;5296;51.060;13.750;2022-10-16T04:53:41;12.00;;;10.80;;
10497;SDS011;5296;51.060;13.750;2022-10-16T04:58:43;12.70;;;11.52;;
10497;SDS011;5296;51.060;13.750;2022-10-16T05:03:45;12.13;;;10.93;;
10497;SDS011;5296;51.060;13.750;2022-10-16T05:08:46;11.63;;;10.63;;
10497;SDS011;5296;51.060;13.750;2022-10-16T05:13:48;11.98;;;10.98;;
10497;SDS011;5296;51.060;13.750;2022-10-16T05:18:55;11.90;;;10.90;;
10497;SDS011;5296;51.060;13.750;2022-10-16T05:24:17;11.18;;;10.23;;
10497;SDS011;5296;51.060;13.750;2022-10-16T05:29:18;11.80;;;10.70;;
10497;SDS011;5296;51.060;13.750;2022-10-16T05:34:20;11.10;;;10.20;;
10497;SDS011;5296;51.060;13.750;2022-10-16T05:39:22;10.77;;;9.88;;
10497;SDS011;5296;51.060;13.750;2022-10-16T05:44:24;10.57;;;9.57;;
10497;SDS011;5296;51.060;13.750;2022-10-16T05:49:25;10.93;;;9.77;;
10497;SDS011;5296;51.060;13.750;2022-10-16T05:54:27;10.77;;;9.85;;
10497;SDS011;5296;51.060;13.750;2022-10-16T05:59:28;11.02;;;10.13;;
10497;SDS011;5296;51.060;13.750;2022-10-16T06:04:30;10.30;;;9.35;;
10497;SDS011;5296;51.060;13.750;2022-10-16T06:09:31;11.20;;;10.30;;
10497;SDS011;5296;51.060;13.750;2022-10-16T06:14:33;10.32;;;9.38;;
10497;SDS011;5296;51.060;13.750;2022-10-16T06:19:34;10.77;;;9.88;;
10497;SDS011;5296;51.060;13.750;2022-10-16T06:24:36;12.63;;;10.30;;
10497;SDS011;5296;51.060;13.750;2022-10-16T06:29:38;10.23;;;9.43;;
10497;SDS011;5296;51.060;13.750;2022-10-16T06:34:39;11.68;;;10.68;;
10497;SDS011;5296;51.060;13.750;2022-10-16T06:39:44;11.38;;;10.38;;
10497;SDS011;5296;51.060;13.750;2022-10-16T06:44:46;11.10;;;10.20;;
10497;SDS011;5296;51.060;13.750;2022-10-16T06:49:47;11.50;;;10.60;;
10497;SDS011;5296;51.060;13.750;2022-10-16T06:54:54;12.15;;;11.20;;
10497;SDS011;5296;51.060;13.750;2022-10-16T06:59:56;12.20;;;11.00;;
10497;SDS011;5296;51.060;13.750;2022-10-16T07:04:57;12.45;;;11.45;;
10497;SDS011;5296;51.060;13.750;2022-10-16T07:09:59;12.40;;;11.40;;
10497;SDS011;5296;51.060;13.750;2022-10-16T07:15:00;12.05;;;11.07;;
10497;SDS011;5296;51.060;13.750;2022-10-16T07:20:02;12.70;;;11.60;;
10497;SDS011;5296;51.060;13.750;2022-10-16T07:25:04;12.45;;;11.45;;
10497;SDS011;5296;51.060;13.750;2022-10-16T07:30:06;12.40;;;11.30;;
10497;SDS011;5296;51.060;13.750;2022-10-16T07:35:09;12.27;;;11.23;;
10497;SDS011;5296;51.060;13.750;2022-10-16T07:40:11;11.98;;;10.82;;
10497;SDS011;5296;51.060;13.750;2022-10-16T07:45:13;11.77;;;10.77;;
10497;SDS011;5296;51.060;13.750;2022-10-16T07:50:14;11.93;;;10.93;;
10497;SDS011;5296;51.060;13.750;2022-10-16T07:55:16;12.90;;;11.80;;
10497;SDS011;5296;51.060;13.750;2022-10-16T08:00:17;12.45;;;11.40;;
10497;SDS011;5296;51.060;13.750;2022-10-16T08:05:19;12.27;;;11.27;;
10497;SDS011;5296;51.060;13.750;2022-10-16T08:10:21;12.10;;;10.95;;
10497;SDS011;5296;51.060;13.750;2022-10-16T08:15:24;11.50;;;10.50;;
10497;SDS011;5296;51.060;13.750;2022-10-16T08:20:26;11.80;;;10.82;;
10497;SDS011;5296;51.060;13.750;2022-10-16T08:25:28;11.52;;;10.60;;
10497;SDS011;5296;51.060;13.750;2022-10-16T08:30:30;10.40;;;9.60;;
10497;SDS011;5296;51.060;13.750;2022-10-16T08:35:32;10.55;;;9.50;;
10497;SDS011;5296;51.060;13.750;2022-10-16T08:40:34;10.10;;;9.30;;
10497;SDS011;5296;51.060;13.750;2022-10-16T08:45:49;8.77;;;8.07;;
10497;SDS011;5296;51.060;13.750;2022-10-16T08:50:54;9.05;;;8.32;;
10497;SDS011;5296;51.060;13.750;2022-10-16T08:55:55;8.85;;;8.15;;
10497;SDS011;5296;51.060;13.750;2022-10-16T09:01:00;9.18;;;8.45;;
10497;SDS011;5296;51.060;13.750;2022-10-16T09:06:07;8.10;;;7.40;;
10497;SDS011;5296;51.060;13.750;2022-10-16T09:11:31;8.48;;;7.68;;
10497;SDS011;5296;51.060;13.750;2022-10-16T09:16:55;7.53;;;6.88;;
10497;SDS011;5296;51.060;13.750;2022-10-16T09:21:59;8.05;;;7.35;;
10497;SDS011;5296;51.060;13.750;2022-10-16T09:27:08;8.75;;;8.13;;
10497;SDS011;5296;51.060;13.750;2022-10-16T09:32:12;8.38;;;7.68;;
10497;SDS011;5296;51.060;13.750;2022-10-16T09:37:18;7.40;;;6.82;;
10497;SDS011;5296;51.060;13.750;2022-10-16T09:42:21;7.90;;;7.20;;
10497;SDS011;5296;51.060;13.750;2022-10-16T09:47:28;7.72;;;7.03;;
10497;SDS011;5296;51.060;13.750;2022-10-16T09:52:31;7.03;;;6.53;;
10497;SDS011;5296;51.060;13.750;2022-10-16T09:57:32;5.65;;;5.25;;
10497;SDS011;5296;51.060;13.750;2022-10-16T10:02:35;5.57;;;5.18;;
10497;SDS011;5296;51.060;13.750;2022-10-16T10:07:39;5.00;;;4.60;;
10497;SDS011;5296;51.060;13.750;2022-10-16T10:12:44;4.18;;;3.88;;
10497;SDS011;5296;51.060;13.750;2022-10-16T10:17:50;4.57;;;3.83;;
10497;SDS011;5296;51.060;13.750;2022-10-16T10:22:53;3.97;;;3.67;;
10497;SDS011;5296;51.060;13.750;2022-10-16T10:55:17;2.90;;;1.00;;
10497;SDS011;5296;51.060;13.750;2022-10-16T11:10:38;0.90;;;0.90;;
10497;SDS011;5296;51.060;13.750;2022-10-16T11:15:44;0.88;;;0.80;;
10497;SDS011;5296;51.060;13.750;2022-10-16T11:20:49;0.85;;;0.85;;
10497;SDS011;5296;51.060;13.750;2022-10-16T11:25:56;1.23;;;0.90;;
10497;SDS011;5296;51.060;13.750;2022-10-16T11:31:03;0.77;;;0.75;;
10497;SDS011;5296;51.060;13.750;2022-10-16T11:36:12;1.98;;;0.80;;
10497;SDS011;5296;51.060;13.750;2022-10-16T11:46:36;3.00;;;1.05;;
10497;SDS011;5296;51.060;13.750;2022-10-16T11:52:07;2.60;;;0.95;;
10497;SDS011;5296;51.060;13.750;2022-10-16T11:57:29;1.38;;;0.80;;
10497;SDS011;5296;51.060;13.750;2022-10-16T12:02:37;1.23;;;0.90;;
10497;SDS011;5296;51.060;13.750;2022-10-16T12:08:09;3.38;;;1.08;;
10497;SDS011;5296;51.060;13.750;2022-10-16T12:13:28;0.68;;;0.68;;
10497;SDS011;5296;51.060;13.750;2022-10-16T12:18:31;1.02;;;0.70;;
10497;SDS011;5296;51.060;13.750;2022-10-16T12:23:45;0.65;;;0.63;;
10497;SDS011;5296;51.060;13.750;2022-10-16T12:28:49;1.17;;;1.00;;
10497;SDS011;5296;51.060;13.750;2022-10-16T12:33:59;1.08;;;0.88;;
10497;SDS011;5296;51.060;13.750;2022-10-16T12:39:03;0.65;;;0.65;;
10497;SDS011;5296;51.060;13.750;2022-10-16T12:44:04;2.28;;;1.00;;
10497;SDS011;5296;51.060;13.750;2022-10-16T12:49:20;1.05;;;1.02;;
10497;SDS011;5296;51.060;13.750;2022-10-16T12:54:31;0.85;;;0.85;;
10497;SDS011;5296;51.060;13.750;2022-10-16T12:59:47;0.95;;;0.82;;
10497;SDS011;5296;51.060;13.750;2022-10-16T13:10:17;1.77;;;1.10;;
10497;SDS011;5296;51.060;13.750;2022-10-16T13:26:19;0.70;;;0.70;;
10497;SDS011;5296;51.060;13.750;2022-10-16T13:31:25;0.98;;;0.98;;
10497;SDS011;5296;51.060;13.750;2022-10-16T13:36:28;0.80;;;0.80;;
10497;SDS011;5296;51.060;13.750;2022-10-16T13:41:31;0.98;;;0.98;;
10497;SDS011;5296;51.060;13.750;2022-10-16T13:46:33;1.50;;;1.20;;
10497;SDS011;5296;51.060;13.750;2022-10-16T13:51:35;2.58;;;1.35;;
10497;SDS011;5296;51.060;13.750;2022-10-16T13:56:38;1.80;;;1.35;;
10497;SDS011;5296;51.060;13.750;2022-10-16T14:01:41;1.88;;;1.50;;
10497;SDS011;5296;51.060;13.750;2022-10-16T14:06:45;1.42;;;1.20;;
10497;SDS011;5296;51.060;13.750;2022-10-16T14:11:51;1.70;;;1.40;;
10497;SDS011;5296;51.060;13.750;2022-10-16T14:16:55;1.63;;;1.38;;
10497;SDS011;5296;51.060;13.750;2022-10-16T14:21:57;1.67;;;1.42;;
10497;SDS011;5296;51.060;13.750;2022-10-16T14:27:00;2.47;;;1.50;;
10497;SDS011;5296;51.060;13.750;2022-10-16T14:32:03;1.08;;;1.00;;
10497;SDS011;5296;51.060;13.750;2022-10-16T14:37:20;1.30;;;1.20;;
10497;SDS011;5296;51.060;13.750;2022-10-16T14:42:29;3.35;;;1.20;;
10497;SDS011;5296;51.060;13.750;2022-10-16T14:47:32;1.63;;;1.20;;
10497;SDS011;5296;51.060;13.750;2022-10-16T14:52:33;2.13;;;1.20;;
10497;SDS011;5296;51.060;13.750;2022-10-16T14:57:35;1.95;;;1.10;;
10497;SDS011;5296;51.060;13.750;2022-10-16T15:02:39;1.40;;;1.30;;
10497;SDS011;5296;51.060;13.750;2022-10-16T15:07:40;2.47;;;1.48;;
10497;SDS011;5296;51.060;13.750;2022-10-16T15:12:43;2.25;;;1.23;;
10497;SDS011;5296;51.060;13.750;2022-10-16T15:17:44;1.63;;;1.40;;
10497;SDS011;5296;51.060;13.750;2022-10-16T15:22:46;2.10;;;1.30;;
10497;SDS011;5296;51.060;13.750;2022-10-16T15:27:47;1.73;;;1.30;;
10497;SDS011;5296;51.060;13.750;2022-10-16T15:32:49;2.17;;;1.27;;
10497;SDS011;5296;51.060;13.750;2022-10-16T15:37:50;2.08;;;1.83;;
10497;SDS011;5296;51.060;13.750;2022-10-16T15:42:52;1.80;;;1.60;;
10497;SDS011;5296;51.060;13.750;2022-10-16T15:47:53;2.85;;;1.90;;
10497;SDS011;5296;51.060;13.750;2022-10-16T15:52:55;3.20;;;2.00;;
10497;SDS011;5296;51.060;13.750;2022-10-16T15:57:56;1.90;;;1.80;;
10497;SDS011;5296;51.060;13.750;2022-10-16T16:02:58;2.83;;;1.75;;
10497;SDS011;5296;51.060;13.750;2022-10-16T16:08:00;2.25;;;1.80;;
10497;SDS011;5296;51.060;13.750;2022-10-16T16:13:01;4.13;;;1.80;;
10497;SDS011;5296;51.060;13.750;2022-10-16T16:18:03;2.55;;;2.05;;
10497;SDS011;5296;51.060;13.750;2022-10-16T16:23:11;1.90;;;1.65;;
10497;SDS011;5296;51.060;13.750;2022-10-16T16:28:13;3.85;;;2.00;;
10497;SDS011;5296;51.060;13.750;2022-10-16T16:33:15;2.55;;;2.22;;
10497;SDS011;5296;51.060;13.750;2022-10-16T16:38:16;3.15;;;2.20;;
10497;SDS011;5296;51.060;13.750;2022-10-16T16:43:19;2.58;;;2.20;;
10497;SDS011;5296;51.060;13.750;2022-10-16T16:48:21;3.78;;;2.22;;
10497;SDS011;5296;51.060;13.750;2022-10-16T16:53:23;3.55;;;2.30;;
10497;SDS011;5296;51.060;13.750;2022-10-16T16:58:24;2.53;;;2.33;;
10497;SDS011;5296;51.060;13.750;2022-10-16T17:03:35;2.67;;;2.00;;
10497;SDS011;5296;51.060;13.750;2022-10-16T17:08:37;2.95;;;2.33;;
10497;SDS011;5296;51.060;13.750;2022-10-16T17:13:43;4.53;;;2.50;;
10497;SDS011;5296;51.060;13.750;2022-10-16T17:18:44;3.17;;;2.63;;
10497;SDS011;5296;51.060;13.750;2022-10-16T17:23:46;3.25;;;2.60;;
10497;SDS011;5296;51.060;13.750;2022-10-16T17:28:50;3.53;;;2.60;;
10497;SDS011;5296;51.060;13.750;2022-10-16T17:33:56;4.68;;;3.00;;
10497;SDS011;5296;51.060;13.750;2022-10-16T17:38:59;6.40;;;3.45;;
10497;SDS011;5296;51.060;13.750;2022-10-16T17:44:05;4.05;;;3.00;;
10497;SDS011;5296;51.060;13.750;2022-10-16T17:49:08;6.55;;;3.47;;
10497;SDS011;5296;51.060;13.750;2022-10-16T17:54:10;4.43;;;3.70;;
10497;SDS011;5296;51.060;13.750;2022-10-16T17:59:14;3.78;;;3.47;;
10497;SDS011;5296;51.060;13.750;2022-10-16T18:04:16;4.00;;;3.60;;
10497;SDS011;5296;51.060;13.750;2022-10-16T18:09:18;4.13;;;3.72;;
10497;SDS011;5296;51.060;13.750;2022-10-16T18:14:20;9.73;;;4.70;;
10497;SDS011;5296;51.060;13.750;2022-10-16T18:19:22;4.82;;;4.32;;
10497;SDS011;5296;51.060;13.750;2022-10-16T18:24:24;5.85;;;4.72;;
10497;SDS011;5296;51.060;13.750;2022-10-16T18:29:26;5.32;;;4.38;;
10497;SDS011;5296;51.060;13.750;2022-10-16T18:34:28;5.40;;;4.18;;
10497;SDS011;5296;51.060;13.750;2022-10-16T18:39:29;6.88;;;4.88;;
10497;SDS011;5296;51.060;13.750;2022-10-16T18:44:31;6.38;;;5.43;;
10497;SDS011;5296;51.060;13.750;2022-10-16T18:49:32;5.28;;;4.65;;
10497;SDS011;5296;51.060;13.750;2022-10-16T18:54:34;6.43;;;5.28;;
10497;SDS011;5296;51.060;13.750;2022-10-16T18:59:37;8.45;;;5.30;;
10497;SDS011;5296;51.060;13.750;2022-10-16T19:04:40;6.82;;;6.07;;
10497;SDS011;5296;51.060;13.750;2022-10-16T19:09:41;7.18;;;6.28;;
10497;SDS011;5296;51.060;13.750;2022-10-16T19:14:43;8.60;;;5.80;;
10497;SDS011;5296;51.060;13.750;2022-10-16T19:19:44;6.10;;;5.38;;
10497;SDS011;5296;51.060;13.750;2022-10-16T19:24:46;9.07;;;5.90;;
10497;SDS011;5296;51.060;13.750;2022-10-16T19:29:47;6.50;;;5.80;;
10497;SDS011;5296;51.060;13.750;2022-10-16T19:34:49;8.63;;;5.72;;
10497;SDS011;5296;51.060;13.750;2022-10-16T19:39:51;6.63;;;5.47;;
10497;SDS011;5296;51.060;13.750;2022-10-16T19:44:53;8.15;;;5.95;;
10497;SDS011;5296;51.060;13.750;2022-10-16T19:49:54;11.15;;;6.53;;
10497;SDS011;5296;51.060;13.750;2022-10-16T19:54:56;7.72;;;6.40;;
10497;SDS011;5296;51.060;13.750;2022-10-16T19:59:58;8.35;;;6.55;;
10497;SDS011;5296;51.060;13.750;2022-10-16T20:04:59;7.32;;;6.57;;
10497;SDS011;5296;51.060;13.750;2022-10-16T20:10:01;9.07;;;7.00;;
10497;SDS011;5296;51.060;13.750;2022-10-16T20:15:03;14.02;;;11.85;;
10497;SDS011;5296;51.060;13.750;2022-10-16T20:20:05;18.48;;;16.40;;
10497;SDS011;5296;51.060;13.750;2022-10-16T20:25:07;12.70;;;11.18;;
10497;SDS011;5296;51.060;13.750;2022-10-16T20:30:10;10.15;;;9.05;;
10497;SDS011;5296;51.060;13.750;2022-10-16T20:35:12;8.15;;;7.35;;
10497;SDS011;5296;51.060;13.750;2022-10-16T20:40:13;7.85;;;7.00;;
10497;SDS011;5296;51.060;13.750;2022-10-16T20:45:15;6.20;;;5.60;;
10497;SDS011;5296;51.060;13.750;2022-10-16T20:50:16;5.85;;;5.35;;
10497;SDS011;5296;51.060;13.750;2022-10-16T20:55:18;6.10;;;5.35;;
10497;SDS011;5296;51.060;13.750;2022-10-16T21:00:19;7.57;;;5.55;;
10497;SDS011;5296;51.060;13.750;2022-10-16T21:05:21;5.60;;;4.85;;
10497;SDS011;5296;51.060;13.750;2022-10-16T21:10:23;6.72;;;4.85;;
10497;SDS011;5296;51.060;13.750;2022-10-16T21:15:25;8.07;;;5.57;;
10497;SDS011;5296;51.060;13.750;2022-10-16T21:20:26;6.00;;;5.40;;
10497;SDS011;5296;51.060;13.750;2022-10-16T21:25:28;5.13;;;4.63;;
10497;SDS011;5296;51.060;13.750;2022-10-16T21:30:30;7.30;;;5.00;;
10497;SDS011;5296;51.060;13.750;2022-10-16T21:35:31;5.25;;;4.75;;
10497;SDS011;5296;51.060;13.750;2022-10-16T21:40:33;11.65;;;4.55;;
10497;SDS011;5296;51.060;13.750;2022-10-16T21:45:34;6.60;;;4.80;;
10497;SDS011;5296;51.060;13.750;2022-10-16T21:50:36;6.78;;;5.65;;
10497;SDS011;5296;51.060;13.750;2022-10-16T21:55:37;10.95;;;6.60;;
10497;SDS011;5296;51.060;13.750;2022-10-16T22:00:39;9.18;;;6.80;;
10497;SDS011;5296;51.060;13.750;2022-10-16T22:05:40;9.75;;;7.22;;
10497;SDS011;5296;51.060;13.750;2022-10-16T22:10:42;7.97;;;7.05;;
10497;SDS011;5296;51.060;13.750;2022-10-16T22:15:47;6.55;;;5.95;;
10497;SDS011;5296;51.060;13.750;2022-10-16T22:20:52;5.05;;;4.63;;
10497;SDS011;5296;51.060;13.750;2022-10-16T22:26:01;6.25;;;4.57;;
10497;SDS011;5296;51.060;13.750;2022-10-16T22:31:09;5.32;;;4.80;;
10497;SDS011;5296;51.060;13.750;2022-10-16T22:36:12;5.15;;;4.22;;
10497;SDS011;5296;51.060;13.750;2022-10-16T22:41:14;4.50;;;4.10;;
10497;SDS011;5296;51.060;13.750;2022-10-16T22:46:18;4.55;;;4.20;;
10497;SDS011;5296;51.060;13.750;2022-10-16T22:51:27;4.38;;;3.80;;
10497;SDS011;5296;51.060;13.750;2022-10-16T22:56:29;6.05;;;4.40;;
10497;SDS011;5296;51.060;13.750;2022-10-16T23:01:32;4.72;;;4.18;;
10497;SDS011;5296;51.060;13.750;2022-10-16T23:06:36;4.60;;;4.20;;
10497;SDS011;5296;51.060;13.750;2022-10-16T23:11:37;4.03;;;3.72;;
10497;SDS011;5296;51.060;13.750;2022-10-16T23:16:39;4.32;;;3.85;;
10497;SDS011;5296;51.060;13.750;2022-10-16T23:21:40;6.03;;;4.18;;
10497;SDS011;5296;51.060;13.750;2022-10-16T23:26:42;3.83;;;3.53;;
10497;SDS011;5296;51.060;13.750;2022-10-16T23:31:44;5.45;;;4.00;;
10497;SDS011;5296;51.060;13.750;2022-10-16T23:36:45;4.30;;;3.90;;
10497;SDS011;5296;51.060;13.750;2022-10-16T23:41:47;9.02;;;4.00;;
10497;SDS011;5296;51.060;13.750;2022-10-16T23:46:48;4.78;;;3.92;;
10497;SDS011;5296;51.060;13.750;2022-10-16T23:51:50;4.47;;;3.78;;
10497;SDS011;5296;51.060;13.750;2022-10-16T23:56:51;11.80;;;3.63;;
